sensor_id;sensor_type;location;lat;lon;timestamp;temperature;humidity
15143;DHT22;7672;50.834;6.286;2022-10-31T00:01:38;18.10;99.90
15143;DHT22;7672;50.834;6.286;2022-10-31T00:04:06;18.10;99.90
15143;DHT22;7672;50.834;6.286;2022-10-31T00:06:33;18.00;99.90
15143;DHT22;7672;50.834;6.286;2022-10-31T00:09:01;18.10;99.90
15143;DHT22;7672;50.834;6.286;2022-10-31T00:11:30;18.10;99.90
15143;DHT22;7672;50.834;6.286;2022-10-31T00:13:58;18.00;99.90
15143;DHT22;7672;50.834;6.286;2022-10-31T00:16:26;18.00;99.90
15143;DHT22;7672;50.834;6.286;2022-10-31T00:18:56;18.00;99.90
15143;DHT22;7672;50.834;6.286;2022-10-31T00:21:25;18.00;99.90
15143;DHT22;7672;50.834;6.286;2022-10-31T00:23:52;18.00;99.90
15143;DHT22;7672;50.834;6.286;2022-10-31T00:26:19;18.10;99.90
15143;DHT22;7672;50.834;6.286;2022-10-31T00:28:46;18.00;99.90
15143;DHT22;7672;50.834;6.286;2022-10-31T00:31:21;18.00;99.90
15143;DHT22;7672;50.834;6.286;2022-10-31T00:33:48;18.00;99.90
15143;DHT22;7672;50.834;6.286;2022-10-31T00:36:16;17.90;99.90
15143;DHT22;7672;50.834;6.286;2022-10-31T00:38:45;17.90;99.90
15143;DHT22;7672;50.834;6.286;2022-10-31T00:41:15;17.90;99.90
15143;DHT22;7672;50.834;6.286;2022-10-31T00:43:43;17.90;99.90
15143;DHT22;7672;50.834;6.286;2022-10-31T00:46:11;17.90;99.90
15143;DHT22;7672;50.834;6.286;2022-10-31T00:48:38;18.00;99.90
15143;DHT22;7672;50.834;6.286;2022-10-31T00:51:06;18.00;99.90
15143;DHT22;7672;50.834;6.286;2022-10-31T00:53:33;18.00;99.90
15143;DHT22;7672;50.834;6.286;2022-10-31T00:56:00;18.00;99.90
15143;DHT22;7672;50.834;6.286;2022-10-31T00:58:27;18.00;99.90
15143;DHT22;7672;50.834;6.286;2022-10-31T01:00:53;17.90;99.90
15143;DHT22;7672;50.834;6.286;2022-10-31T01:03:28;18.00;99.90
15143;DHT22;7672;50.834;6.286;2022-10-31T01:06:10;17.90;99.90
15143;DHT22;7672;50.834;6.286;2022-10-31T01:08:39;17.90;99.90
15143;DHT22;7672;50.834;6.286;2022-10-31T01:13:43;17.80;99.90
15143;DHT22;7672;50.834;6.286;2022-10-31T01:16:13;17.80;99.90
15143;DHT22;7672;50.834;6.286;2022-10-31T01:18:41;17.80;99.90
15143;DHT22;7672;50.834;6.286;2022-10-31T01:21:17;17.70;99.90
15143;DHT22;7672;50.834;6.286;2022-10-31T01:23:45;17.70;99.90
15143;DHT22;7672;50.834;6.286;2022-10-31T01:26:17;17.70;99.90
15143;DHT22;7672;50.834;6.286;2022-10-31T01:29:06;17.70;99.90
15143;DHT22;7672;50.834;6.286;2022-10-31T01:31:36;17.60;99.90
15143;DHT22;7672;50.834;6.286;2022-10-31T01:34:04;17.70;99.90
15143;DHT22;7672;50.834;6.286;2022-10-31T01:36:35;17.70;99.90
15143;DHT22;7672;50.834;6.286;2022-10-31T01:39:07;17.70;99.90
15143;DHT22;7672;50.834;6.286;2022-10-31T01:41:39;17.60;99.90
15143;DHT22;7672;50.834;6.286;2022-10-31T01:49:30;17.60;99.90
15143;DHT22;7672;50.834;6.286;2022-10-31T01:52:12;17.70;99.90
15143;DHT22;7672;50.834;6.286;2022-10-31T01:57:45;17.60;99.90
15143;DHT22;7672;50.834;6.286;2022-10-31T02:00:17;17.60;99.90
15143;DHT22;7672;50.834;6.286;2022-10-31T02:02:48;17.60;99.90
15143;DHT22;7672;50.834;6.286;2022-10-31T02:05:20;17.70;99.90
15143;DHT22;7672;50.834;6.286;2022-10-31T02:10:24;17.60;99.90
15143;DHT22;7672;50.834;6.286;2022-10-31T02:12:53;17.60;99.90
15143;DHT22;7672;50.834;6.286;2022-10-31T02:15:23;17.60;99.90
15143;DHT22;7672;50.834;6.286;2022-10-31T02:17:51;17.60;99.90
15143;DHT22;7672;50.834;6.286;2022-10-31T02:20:20;17.60;99.90
15143;DHT22;7672;50.834;6.286;2022-10-31T02:41:46;17.40;99.90
15143;DHT22;7672;50.834;6.286;2022-10-31T02:44:39;17.30;99.90
15143;DHT22;7672;50.834;6.286;2022-10-31T02:47:29;17.30;99.90
15143;DHT22;7672;50.834;6.286;2022-10-31T02:50:17;17.30;99.90
15143;DHT22;7672;50.834;6.286;2022-10-31T02:52:52;17.20;99.90
15143;DHT22;7672;50.834;6.286;2022-10-31T03:00:40;17.20;99.90
15143;DHT22;7672;50.834;6.286;2022-10-31T03:09:32;17.20;99.90
15143;DHT22;7672;50.834;6.286;2022-10-31T03:12:11;17.20;99.90
15143;DHT22;7672;50.834;6.286;2022-10-31T03:14:54;17.20;99.90
15143;DHT22;7672;50.834;6.286;2022-10-31T03:17:38;17.10;99.90
15143;DHT22;7672;50.834;6.286;2022-10-31T03:20:35;17.10;99.90
15143;DHT22;7672;50.834;6.286;2022-10-31T03:23:11;17.10;99.90
15143;DHT22;7672;50.834;6.286;2022-10-31T03:25:42;17.10;99.90
15143;DHT22;7672;50.834;6.286;2022-10-31T03:28:12;17.10;99.90
15143;DHT22;7672;50.834;6.286;2022-10-31T03:30:43;17.00;99.90
15143;DHT22;7672;50.834;6.286;2022-10-31T03:33:16;17.00;99.90
15143;DHT22;7672;50.834;6.286;2022-10-31T03:35:51;16.90;99.90
15143;DHT22;7672;50.834;6.286;2022-10-31T03:38:21;16.90;99.90
15143;DHT22;7672;50.834;6.286;2022-10-31T03:40:51;16.90;99.90
15143;DHT22;7672;50.834;6.286;2022-10-31T03:43:24;16.80;99.90
15143;DHT22;7672;50.834;6.286;2022-10-31T03:45:55;16.80;99.90
15143;DHT22;7672;50.834;6.286;2022-10-31T03:48:22;16.80;99.90
15143;DHT22;7672;50.834;6.286;2022-10-31T03:53:47;16.80;99.90
15143;DHT22;7672;50.834;6.286;2022-10-31T03:56:50;16.80;99.90
15143;DHT22;7672;50.834;6.286;2022-10-31T03:59:26;16.80;99.90
15143;DHT22;7672;50.834;6.286;2022-10-31T04:02:03;16.80;99.90
15143;DHT22;7672;50.834;6.286;2022-10-31T04:04:38;16.70;99.90
15143;DHT22;7672;50.834;6.286;2022-10-31T04:07:07;16.70;99.90
15143;DHT22;7672;50.834;6.286;2022-10-31T04:09:38;16.70;99.90
15143;DHT22;7672;50.834;6.286;2022-10-31T04:12:12;16.60;99.90
15143;DHT22;7672;50.834;6.286;2022-10-31T04:14:44;16.60;99.90
15143;DHT22;7672;50.834;6.286;2022-10-31T04:17:17;16.50;99.90
15143;DHT22;7672;50.834;6.286;2022-10-31T04:19:47;16.40;99.90
15143;DHT22;7672;50.834;6.286;2022-10-31T04:22:14;16.40;99.90
15143;DHT22;7672;50.834;6.286;2022-10-31T04:24:41;16.30;99.90
15143;DHT22;7672;50.834;6.286;2022-10-31T04:27:07;16.30;99.90
15143;DHT22;7672;50.834;6.286;2022-10-31T04:29:34;16.20;99.90
15143;DHT22;7672;50.834;6.286;2022-10-31T04:32:01;16.20;99.90
15143;DHT22;7672;50.834;6.286;2022-10-31T04:34:28;16.10;99.90
15143;DHT22;7672;50.834;6.286;2022-10-31T04:36:54;16.10;99.90
15143;DHT22;7672;50.834;6.286;2022-10-31T04:39:21;16.00;99.90
15143;DHT22;7672;50.834;6.286;2022-10-31T04:41:52;16.00;99.90
15143;DHT22;7672;50.834;6.286;2022-10-31T04:44:19;16.00;99.90
15143;DHT22;7672;50.834;6.286;2022-10-31T04:46:46;15.90;99.90
15143;DHT22;7672;50.834;6.286;2022-10-31T04:49:13;15.90;99.90
15143;DHT22;7672;50.834;6.286;2022-10-31T04:51:39;15.90;99.90
15143;DHT22;7672;50.834;6.286;2022-10-31T04:54:06;15.90;99.90
15143;DHT22;7672;50.834;6.286;2022-10-31T04:56:33;15.90;99.90
15143;DHT22;7672;50.834;6.286;2022-10-31T04:59:00;15.90;99.90
15143;DHT22;7672;50.834;6.286;2022-10-31T05:01:27;15.90;99.90
15143;DHT22;7672;50.834;6.286;2022-10-31T05:03:54;15.90;99.90
15143;DHT22;7672;50.834;6.286;2022-10-31T05:06:21;15.90;99.90
15143;DHT22;7672;50.834;6.286;2022-10-31T05:08:48;15.80;99.90
15143;DHT22;7672;50.834;6.286;2022-10-31T05:11:14;15.80;99.90
15143;DHT22;7672;50.834;6.286;2022-10-31T05:13:41;15.80;99.90
15143;DHT22;7672;50.834;6.286;2022-10-31T05:16:08;15.80;99.90
15143;DHT22;7672;50.834;6.286;2022-10-31T05:18:35;15.80;99.90
15143;DHT22;7672;50.834;6.286;2022-10-31T05:21:01;15.80;99.90
15143;DHT22;7672;50.834;6.286;2022-10-31T05:23:28;15.80;99.90
15143;DHT22;7672;50.834;6.286;2022-10-31T05:25:55;15.80;99.90
15143;DHT22;7672;50.834;6.286;2022-10-31T05:28:22;15.80;99.90
15143;DHT22;7672;50.834;6.286;2022-10-31T05:30:49;15.80;99.90
15143;DHT22;7672;50.834;6.286;2022-10-31T05:33:16;15.70;99.90
15143;DHT22;7672;50.834;6.286;2022-10-31T05:35:43;15.80;99.90
15143;DHT22;7672;50.834;6.286;2022-10-31T05:38:09;15.80;99.90
15143;DHT22;7672;50.834;6.286;2022-10-31T05:40:36;15.80;99.90
15143;DHT22;7672;50.834;6.286;2022-10-31T05:43:03;15.80;99.90
15143;DHT22;7672;50.834;6.286;2022-10-31T05:45:30;15.80;99.90
15143;DHT22;7672;50.834;6.286;2022-10-31T05:47:59;15.80;99.90
15143;DHT22;7672;50.834;6.286;2022-10-31T05:50:30;15.80;99.90
15143;DHT22;7672;50.834;6.286;2022-10-31T05:53:04;15.70;99.90
15143;DHT22;7672;50.834;6.286;2022-10-31T05:55:32;15.70;99.90
15143;DHT22;7672;50.834;6.286;2022-10-31T05:57:59;15.70;99.90
15143;DHT22;7672;50.834;6.286;2022-10-31T06:00:27;15.70;99.90
15143;DHT22;7672;50.834;6.286;2022-10-31T06:03:06;15.70;99.90
15143;DHT22;7672;50.834;6.286;2022-10-31T06:05:34;15.70;99.90
15143;DHT22;7672;50.834;6.286;2022-10-31T06:08:00;15.60;99.90
15143;DHT22;7672;50.834;6.286;2022-10-31T06:10:28;15.60;99.90
15143;DHT22;7672;50.834;6.286;2022-10-31T06:12:56;15.60;99.90
15143;DHT22;7672;50.834;6.286;2022-10-31T06:15:23;15.50;99.90
15143;DHT22;7672;50.834;6.286;2022-10-31T06:18:04;15.50;99.90
15143;DHT22;7672;50.834;6.286;2022-10-31T06:20:32;15.50;99.90
15143;DHT22;7672;50.834;6.286;2022-10-31T06:23:00;15.50;99.90
15143;DHT22;7672;50.834;6.286;2022-10-31T06:25:28;15.50;99.90
15143;DHT22;7672;50.834;6.286;2022-10-31T06:27:55;15.50;99.90
15143;DHT22;7672;50.834;6.286;2022-10-31T06:30:23;15.40;99.90
15143;DHT22;7672;50.834;6.286;2022-10-31T06:32:50;15.40;99.90
15143;DHT22;7672;50.834;6.286;2022-10-31T06:35:17;15.40;99.90
15143;DHT22;7672;50.834;6.286;2022-10-31T06:37:51;15.40;99.90
15143;DHT22;7672;50.834;6.286;2022-10-31T06:40:19;15.40;99.90
15143;DHT22;7672;50.834;6.286;2022-10-31T06:42:46;15.40;99.90
15143;DHT22;7672;50.834;6.286;2022-10-31T06:45:13;15.40;99.90
15143;DHT22;7672;50.834;6.286;2022-10-31T06:47:40;15.40;99.90
15143;DHT22;7672;50.834;6.286;2022-10-31T06:50:26;15.40;99.90
15143;DHT22;7672;50.834;6.286;2022-10-31T06:52:55;15.50;99.90
15143;DHT22;7672;50.834;6.286;2022-10-31T06:55:24;15.40;99.90
15143;DHT22;7672;50.834;6.286;2022-10-31T06:57:56;15.50;99.90
15143;DHT22;7672;50.834;6.286;2022-10-31T07:00:29;15.50;99.90
15143;DHT22;7672;50.834;6.286;2022-10-31T07:03:01;15.50;99.90
15143;DHT22;7672;50.834;6.286;2022-10-31T07:05:33;15.50;99.90
15143;DHT22;7672;50.834;6.286;2022-10-31T07:08:02;15.50;99.90
15143;DHT22;7672;50.834;6.286;2022-10-31T07:10:32;15.50;99.90
15143;DHT22;7672;50.834;6.286;2022-10-31T07:13:11;15.60;99.90
15143;DHT22;7672;50.834;6.286;2022-10-31T07:15:41;15.70;99.90
15143;DHT22;7672;50.834;6.286;2022-10-31T07:18:10;15.90;99.90
15143;DHT22;7672;50.834;6.286;2022-10-31T07:20:38;15.80;99.90
15143;DHT22;7672;50.834;6.286;2022-10-31T07:23:04;15.80;99.90
15143;DHT22;7672;50.834;6.286;2022-10-31T07:25:32;15.90;99.90
15143;DHT22;7672;50.834;6.286;2022-10-31T07:27:59;15.90;99.90
15143;DHT22;7672;50.834;6.286;2022-10-31T07:30:26;16.00;99.90
15143;DHT22;7672;50.834;6.286;2022-10-31T07:32:53;16.10;99.90
15143;DHT22;7672;50.834;6.286;2022-10-31T07:35:23;16.20;99.90
15143;DHT22;7672;50.834;6.286;2022-10-31T07:37:51;16.20;99.90
15143;DHT22;7672;50.834;6.286;2022-10-31T07:40:19;16.30;99.90
15143;DHT22;7672;50.834;6.286;2022-10-31T07:42:48;16.30;99.90
15143;DHT22;7672;50.834;6.286;2022-10-31T07:45:18;16.40;99.90
15143;DHT22;7672;50.834;6.286;2022-10-31T07:47:47;16.50;99.90
15143;DHT22;7672;50.834;6.286;2022-10-31T07:50:21;16.60;99.90
15143;DHT22;7672;50.834;6.286;2022-10-31T07:53:05;16.60;99.90
15143;DHT22;7672;50.834;6.286;2022-10-31T07:55:34;16.70;99.90
15143;DHT22;7672;50.834;6.286;2022-10-31T07:58:02;16.80;99.90
15143;DHT22;7672;50.834;6.286;2022-10-31T08:00:31;16.90;99.90
15143;DHT22;7672;50.834;6.286;2022-10-31T08:03:08;17.00;99.90
15143;DHT22;7672;50.834;6.286;2022-10-31T08:05:36;17.00;99.90
15143;DHT22;7672;50.834;6.286;2022-10-31T08:08:04;17.10;99.90
15143;DHT22;7672;50.834;6.286;2022-10-31T08:10:32;17.10;99.90
15143;DHT22;7672;50.834;6.286;2022-10-31T08:13:06;17.20;99.90
15143;DHT22;7672;50.834;6.286;2022-10-31T08:15:34;17.30;99.90
15143;DHT22;7672;50.834;6.286;2022-10-31T08:18:05;17.30;99.90
15143;DHT22;7672;50.834;6.286;2022-10-31T08:20:33;17.70;99.90
15143;DHT22;7672;50.834;6.286;2022-10-31T08:23:02;17.50;99.90
15143;DHT22;7672;50.834;6.286;2022-10-31T08:25:32;17.60;99.90
15143;DHT22;7672;50.834;6.286;2022-10-31T08:28:05;17.60;99.90
15143;DHT22;7672;50.834;6.286;2022-10-31T08:30:35;17.60;99.90
15143;DHT22;7672;50.834;6.286;2022-10-31T08:33:11;17.60;99.90
15143;DHT22;7672;50.834;6.286;2022-10-31T08:35:40;17.60;99.90
15143;DHT22;7672;50.834;6.286;2022-10-31T08:38:12;17.60;99.90
15143;DHT22;7672;50.834;6.286;2022-10-31T08:40:39;17.60;99.90
15143;DHT22;7672;50.834;6.286;2022-10-31T08:43:13;17.70;99.90
15143;DHT22;7672;50.834;6.286;2022-10-31T08:45:41;17.70;99.90
15143;DHT22;7672;50.834;6.286;2022-10-31T08:48:11;17.70;99.90
15143;DHT22;7672;50.834;6.286;2022-10-31T08:50:41;17.80;99.90
15143;DHT22;7672;50.834;6.286;2022-10-31T08:53:16;17.80;99.90
15143;DHT22;7672;50.834;6.286;2022-10-31T08:55:46;17.90;99.90
15143;DHT22;7672;50.834;6.286;2022-10-31T08:58:18;18.00;99.90
15143;DHT22;7672;50.834;6.286;2022-10-31T09:00:48;17.80;99.90
15143;DHT22;7672;50.834;6.286;2022-10-31T09:03:28;18.20;99.90
15143;DHT22;7672;50.834;6.286;2022-10-31T09:05:58;18.20;99.90
15143;DHT22;7672;50.834;6.286;2022-10-31T09:08:28;18.30;99.90
15143;DHT22;7672;50.834;6.286;2022-10-31T09:10:57;18.40;99.90
15143;DHT22;7672;50.834;6.286;2022-10-31T09:13:24;18.50;99.90
15143;DHT22;7672;50.834;6.286;2022-10-31T09:15:55;18.50;99.90
15143;DHT22;7672;50.834;6.286;2022-10-31T09:18:23;18.60;99.90
15143;DHT22;7672;50.834;6.286;2022-10-31T09:20:50;18.70;99.90
15143;DHT22;7672;50.834;6.286;2022-10-31T09:23:19;18.80;99.90
15143;DHT22;7672;50.834;6.286;2022-10-31T09:25:49;18.90;99.90
15143;DHT22;7672;50.834;6.286;2022-10-31T09:28:20;19.00;99.90
15143;DHT22;7672;50.834;6.286;2022-10-31T09:30:51;19.10;99.90
15143;DHT22;7672;50.834;6.286;2022-10-31T09:33:19;19.20;99.90
15143;DHT22;7672;50.834;6.286;2022-10-31T09:35:47;19.30;99.90
15143;DHT22;7672;50.834;6.286;2022-10-31T09:38:17;19.40;99.90
15143;DHT22;7672;50.834;6.286;2022-10-31T09:41:04;19.50;99.90
15143;DHT22;7672;50.834;6.286;2022-10-31T09:44:59;19.60;99.90
15143;DHT22;7672;50.834;6.286;2022-10-31T09:47:20;19.70;99.90
15143;DHT22;7672;50.834;6.286;2022-10-31T09:50:28;19.80;99.90
15143;DHT22;7672;50.834;6.286;2022-10-31T09:56:13;19.90;99.90
15143;DHT22;7672;50.834;6.286;2022-10-31T09:58:55;20.00;99.90
15143;DHT22;7672;50.834;6.286;2022-10-31T10:01:37;20.10;99.90
15143;DHT22;7672;50.834;6.286;2022-10-31T10:10:18;20.10;99.90
15143;DHT22;7672;50.834;6.286;2022-10-31T10:22:03;20.50;99.90
15143;DHT22;7672;50.834;6.286;2022-10-31T10:30:48;21.30;99.90
15143;DHT22;7672;50.834;6.286;2022-10-31T10:33:26;21.60;99.90
15143;DHT22;7672;50.834;6.286;2022-10-31T10:36:01;21.80;99.90
15143;DHT22;7672;50.834;6.286;2022-10-31T10:38:44;22.00;99.90
15143;DHT22;7672;50.834;6.286;2022-10-31T10:41:19;22.20;99.90
15143;DHT22;7672;50.834;6.286;2022-10-31T10:43:51;22.30;99.90
15143;DHT22;7672;50.834;6.286;2022-10-31T10:46:42;22.50;99.90
15143;DHT22;7672;50.834;6.286;2022-10-31T10:52:46;22.80;99.90
15143;DHT22;7672;50.834;6.286;2022-10-31T10:55:49;23.00;99.90
15143;DHT22;7672;50.834;6.286;2022-10-31T10:58:18;23.10;99.90
15143;DHT22;7672;50.834;6.286;2022-10-31T11:00:46;23.20;99.90
15143;DHT22;7672;50.834;6.286;2022-10-31T11:03:14;23.20;99.90
15143;DHT22;7672;50.834;6.286;2022-10-31T11:08:29;23.30;99.90
15143;DHT22;7672;50.834;6.286;2022-10-31T11:11:23;23.30;99.90
15143;DHT22;7672;50.834;6.286;2022-10-31T11:13:59;23.30;99.90
15143;DHT22;7672;50.834;6.286;2022-10-31T11:16:39;23.40;99.90
15143;DHT22;7672;50.834;6.286;2022-10-31T11:21:38;23.40;99.90
15143;DHT22;7672;50.834;6.286;2022-10-31T11:26:48;23.10;99.90
15143;DHT22;7672;50.834;6.286;2022-10-31T11:29:23;23.10;99.90
15143;DHT22;7672;50.834;6.286;2022-10-31T11:32:00;23.10;99.90
15143;DHT22;7672;50.834;6.286;2022-10-31T11:34:28;23.00;99.90
15143;DHT22;7672;50.834;6.286;2022-10-31T11:37:14;22.90;99.90
15143;DHT22;7672;50.834;6.286;2022-10-31T11:39:46;22.80;99.90
15143;DHT22;7672;50.834;6.286;2022-10-31T11:42:25;22.70;99.90
15143;DHT22;7672;50.834;6.286;2022-10-31T11:44:55;22.60;99.90
15143;DHT22;7672;50.834;6.286;2022-10-31T11:47:27;22.40;99.90
15143;DHT22;7672;50.834;6.286;2022-10-31T11:49:56;22.50;99.90
15143;DHT22;7672;50.834;6.286;2022-10-31T11:52:29;22.40;99.90
15143;DHT22;7672;50.834;6.286;2022-10-31T11:57:47;22.30;99.90
15143;DHT22;7672;50.834;6.286;2022-10-31T12:02:50;22.20;99.90
15143;DHT22;7672;50.834;6.286;2022-10-31T12:05:25;22.20;99.90
15143;DHT22;7672;50.834;6.286;2022-10-31T12:07:59;22.20;99.90
15143;DHT22;7672;50.834;6.286;2022-10-31T12:11:13;22.10;99.90
15143;DHT22;7672;50.834;6.286;2022-10-31T12:17:05;22.00;99.90
15143;DHT22;7672;50.834;6.286;2022-10-31T12:23:03;21.90;99.90
15143;DHT22;7672;50.834;6.286;2022-10-31T12:25:59;21.80;99.90
15143;DHT22;7672;50.834;6.286;2022-10-31T12:29:02;21.70;99.90
15143;DHT22;7672;50.834;6.286;2022-10-31T12:32:13;21.70;99.90
15143;DHT22;7672;50.834;6.286;2022-10-31T12:35:05;21.60;99.90
15143;DHT22;7672;50.834;6.286;2022-10-31T12:38:07;21.50;99.90
15143;DHT22;7672;50.834;6.286;2022-10-31T12:44:02;21.30;99.90
15143;DHT22;7672;50.834;6.286;2022-10-31T12:49:58;21.10;99.90
15143;DHT22;7672;50.834;6.286;2022-10-31T12:55:48;20.90;99.90
15143;DHT22;7672;50.834;6.286;2022-10-31T12:58:43;20.80;99.90
15143;DHT22;7672;50.834;6.286;2022-10-31T13:01:23;20.80;99.90
15143;DHT22;7672;50.834;6.286;2022-10-31T13:04:18;20.70;99.90
15143;DHT22;7672;50.834;6.286;2022-10-31T13:07:00;20.60;99.90
15143;DHT22;7672;50.834;6.286;2022-10-31T13:09:38;20.60;99.90
15143;DHT22;7672;50.834;6.286;2022-10-31T13:12:15;20.50;99.90
15143;DHT22;7672;50.834;6.286;2022-10-31T13:17:40;20.30;99.90
15143;DHT22;7672;50.834;6.286;2022-10-31T13:20:25;20.20;99.90
15143;DHT22;7672;50.834;6.286;2022-10-31T13:23:05;20.20;99.90
15143;DHT22;7672;50.834;6.286;2022-10-31T13:26:03;20.10;99.90
15143;DHT22;7672;50.834;6.286;2022-10-31T13:28:46;20.10;99.90
15143;DHT22;7672;50.834;6.286;2022-10-31T13:31:21;20.00;99.90
15143;DHT22;7672;50.834;6.286;2022-10-31T13:33:51;20.00;99.90
15143;DHT22;7672;50.834;6.286;2022-10-31T13:36:39;19.90;99.90
15143;DHT22;7672;50.834;6.286;2022-10-31T13:40:03;19.80;99.90
15143;DHT22;7672;50.834;6.286;2022-10-31T13:45:25;19.80;99.90
15143;DHT22;7672;50.834;6.286;2022-10-31T13:48:00;19.80;99.90
15143;DHT22;7672;50.834;6.286;2022-10-31T13:51:06;19.80;99.90
15143;DHT22;7672;50.834;6.286;2022-10-31T13:56:19;19.70;99.90
15143;DHT22;7672;50.834;6.286;2022-10-31T14:01:37;19.70;99.90
15143;DHT22;7672;50.834;6.286;2022-10-31T14:04:26;19.60;99.90
15143;DHT22;7672;50.834;6.286;2022-10-31T14:07:13;19.60;99.90
15143;DHT22;7672;50.834;6.286;2022-10-31T14:10:05;19.60;99.90
15143;DHT22;7672;50.834;6.286;2022-10-31T14:12:47;19.60;99.90
15143;DHT22;7672;50.834;6.286;2022-10-31T14:15:21;19.60;99.90
15143;DHT22;7672;50.834;6.286;2022-10-31T14:18:00;19.60;99.90
15143;DHT22;7672;50.834;6.286;2022-10-31T14:20:38;19.60;99.90
15143;DHT22;7672;50.834;6.286;2022-10-31T14:29:00;19.70;99.90
15143;DHT22;7672;50.834;6.286;2022-10-31T14:34:23;19.70;99.90
15143;DHT22;7672;50.834;6.286;2022-10-31T14:37:14;19.70;99.90
15143;DHT22;7672;50.834;6.286;2022-10-31T14:51:46;19.70;99.90
15143;DHT22;7672;50.834;6.286;2022-10-31T14:54:19;19.60;99.90
15143;DHT22;7672;50.834;6.286;2022-10-31T14:56:56;19.60;99.90
15143;DHT22;7672;50.834;6.286;2022-10-31T14:59:45;19.60;99.90
15143;DHT22;7672;50.834;6.286;2022-10-31T15:02:31;19.70;99.90
15143;DHT22;7672;50.834;6.286;2022-10-31T15:05:10;19.70;99.90
15143;DHT22;7672;50.834;6.286;2022-10-31T15:07:52;19.70;99.90
15143;DHT22;7672;50.834;6.286;2022-10-31T15:10:32;19.60;99.90
15143;DHT22;7672;50.834;6.286;2022-10-31T15:13:29;19.70;99.90
15143;DHT22;7672;50.834;6.286;2022-10-31T15:15:56;19.70;99.90
15143;DHT22;7672;50.834;6.286;2022-10-31T15:18:27;19.70;99.90
15143;DHT22;7672;50.834;6.286;2022-10-31T15:20:56;19.60;99.90
15143;DHT22;7672;50.834;6.286;2022-10-31T15:23:28;19.60;99.90
15143;DHT22;7672;50.834;6.286;2022-10-31T15:26:05;19.60;99.90
15143;DHT22;7672;50.834;6.286;2022-10-31T15:28:32;19.60;99.90
15143;DHT22;7672;50.834;6.286;2022-10-31T15:31:00;19.60;99.90
15143;DHT22;7672;50.834;6.286;2022-10-31T15:33:31;19.60;99.90
15143;DHT22;7672;50.834;6.286;2022-10-31T15:36:19;19.50;99.90
15143;DHT22;7672;50.834;6.286;2022-10-31T15:38:58;19.50;99.90
15143;DHT22;7672;50.834;6.286;2022-10-31T15:44:35;19.40;99.90
15143;DHT22;7672;50.834;6.286;2022-10-31T15:47:15;19.30;99.90
15143;DHT22;7672;50.834;6.286;2022-10-31T15:49:54;19.40;99.90
15143;DHT22;7672;50.834;6.286;2022-10-31T15:52:35;19.20;99.90
15143;DHT22;7672;50.834;6.286;2022-10-31T15:55:24;19.30;99.90
15143;DHT22;7672;50.834;6.286;2022-10-31T15:58:00;19.30;99.90
15143;DHT22;7672;50.834;6.286;2022-10-31T16:00:34;19.40;99.90
15143;DHT22;7672;50.834;6.286;2022-10-31T16:03:26;19.30;99.90
15143;DHT22;7672;50.834;6.286;2022-10-31T16:05:59;19.30;99.90
15143;DHT22;7672;50.834;6.286;2022-10-31T16:13:35;19.30;99.90
15143;DHT22;7672;50.834;6.286;2022-10-31T16:16:12;19.30;99.90
15143;DHT22;7672;50.834;6.286;2022-10-31T16:19:04;19.20;99.90
15143;DHT22;7672;50.834;6.286;2022-10-31T16:21:36;19.20;99.90
15143;DHT22;7672;50.834;6.286;2022-10-31T16:26:52;19.20;99.90
15143;DHT22;7672;50.834;6.286;2022-10-31T16:32:34;19.10;99.90
15143;DHT22;7672;50.834;6.286;2022-10-31T16:37:39;19.10;99.90
15143;DHT22;7672;50.834;6.286;2022-10-31T16:40:15;19.10;99.90
15143;DHT22;7672;50.834;6.286;2022-10-31T16:42:43;19.10;99.90
15143;DHT22;7672;50.834;6.286;2022-10-31T16:45:22;19.00;99.90
15143;DHT22;7672;50.834;6.286;2022-10-31T16:47:51;19.00;99.90
15143;DHT22;7672;50.834;6.286;2022-10-31T16:50:26;19.00;99.90
15143;DHT22;7672;50.834;6.286;2022-10-31T16:52:53;18.90;99.90
15143;DHT22;7672;50.834;6.286;2022-10-31T16:55:45;18.90;99.90
15143;DHT22;7672;50.834;6.286;2022-10-31T16:58:29;18.90;99.90
15143;DHT22;7672;50.834;6.286;2022-10-31T17:01:00;18.90;99.90
15143;DHT22;7672;50.834;6.286;2022-10-31T17:03:28;18.90;99.90
15143;DHT22;7672;50.834;6.286;2022-10-31T17:05:55;18.90;99.90
15143;DHT22;7672;50.834;6.286;2022-10-31T17:08:23;18.90;99.90
15143;DHT22;7672;50.834;6.286;2022-10-31T17:10:54;18.90;99.90
15143;DHT22;7672;50.834;6.286;2022-10-31T17:13:25;18.90;99.90
15143;DHT22;7672;50.834;6.286;2022-10-31T17:15:59;18.90;99.90
15143;DHT22;7672;50.834;6.286;2022-10-31T17:18:28;18.90;99.90
15143;DHT22;7672;50.834;6.286;2022-10-31T17:21:02;18.80;99.90
15143;DHT22;7672;50.834;6.286;2022-10-31T17:23:32;18.80;99.90
15143;DHT22;7672;50.834;6.286;2022-10-31T17:25:59;18.80;99.90
15143;DHT22;7672;50.834;6.286;2022-10-31T17:28:26;18.90;99.90
15143;DHT22;7672;50.834;6.286;2022-10-31T17:30:54;18.80;99.90
15143;DHT22;7672;50.834;6.286;2022-10-31T17:33:24;18.70;99.90
15143;DHT22;7672;50.834;6.286;2022-10-31T17:35:51;18.70;99.90
15143;DHT22;7672;50.834;6.286;2022-10-31T17:38:18;18.70;99.90
15143;DHT22;7672;50.834;6.286;2022-10-31T17:40:44;18.70;99.90
15143;DHT22;7672;50.834;6.286;2022-10-31T17:43:16;18.70;99.90
15143;DHT22;7672;50.834;6.286;2022-10-31T17:45:43;18.60;99.90
15143;DHT22;7672;50.834;6.286;2022-10-31T17:48:11;18.60;99.90
15143;DHT22;7672;50.834;6.286;2022-10-31T17:50:38;18.60;99.90
15143;DHT22;7672;50.834;6.286;2022-10-31T17:53:05;18.50;99.90
15143;DHT22;7672;50.834;6.286;2022-10-31T17:55:31;18.50;99.90
15143;DHT22;7672;50.834;6.286;2022-10-31T17:58:03;18.50;99.90
15143;DHT22;7672;50.834;6.286;2022-10-31T18:00:31;18.40;99.90
15143;DHT22;7672;50.834;6.286;2022-10-31T18:02:58;18.40;99.90
15143;DHT22;7672;50.834;6.286;2022-10-31T18:05:25;18.40;99.90
15143;DHT22;7672;50.834;6.286;2022-10-31T18:07:52;18.30;99.90
15143;DHT22;7672;50.834;6.286;2022-10-31T18:10:19;18.30;99.90
15143;DHT22;7672;50.834;6.286;2022-10-31T18:12:46;18.30;99.90
15143;DHT22;7672;50.834;6.286;2022-10-31T18:15:15;18.30;99.90
15143;DHT22;7672;50.834;6.286;2022-10-31T18:17:42;18.20;99.90
15143;DHT22;7672;50.834;6.286;2022-10-31T18:20:10;18.20;99.90
15143;DHT22;7672;50.834;6.286;2022-10-31T18:22:37;18.10;99.90
15143;DHT22;7672;50.834;6.286;2022-10-31T18:25:04;18.10;99.90
15143;DHT22;7672;50.834;6.286;2022-10-31T18:27:31;18.10;99.90
15143;DHT22;7672;50.834;6.286;2022-10-31T18:29:58;17.80;99.90
15143;DHT22;7672;50.834;6.286;2022-10-31T18:32:25;17.80;99.90
15143;DHT22;7672;50.834;6.286;2022-10-31T18:34:51;17.80;99.90
15143;DHT22;7672;50.834;6.286;2022-10-31T18:37:19;17.80;99.90
15143;DHT22;7672;50.834;6.286;2022-10-31T18:39:46;17.80;99.90
15143;DHT22;7672;50.834;6.286;2022-10-31T18:42:13;17.70;99.90
15143;DHT22;7672;50.834;6.286;2022-10-31T18:44:39;17.70;99.90
15143;DHT22;7672;50.834;6.286;2022-10-31T18:47:06;17.60;99.90
15143;DHT22;7672;50.834;6.286;2022-10-31T18:49:33;17.70;99.90
15143;DHT22;7672;50.834;6.286;2022-10-31T18:52:00;17.60;99.90
15143;DHT22;7672;50.834;6.286;2022-10-31T18:54:26;17.50;99.90
15143;DHT22;7672;50.834;6.286;2022-10-31T18:56:53;17.50;99.90